sensor_id;sensor_type;location;lat;lon;timestamp;temperature;humidity
11246;DHT22;59870;50.106;8.580;2024-02-26T06:36:07;10.60;94.50
11246;DHT22;59870;50.106;8.580;2024-02-26T06:38:37;11.00;94.60
11246;DHT22;59870;50.106;8.580;2024-02-26T06:41:09;10.70;94.60
11246;DHT22;59870;50.106;8.580;2024-02-26T06:43:40;10.70;94.70
11246;DHT22;59870;50.106;8.580;2024-02-26T06:46:09;11.00;94.80
11246;DHT22;59870;50.106;8.580;2024-02-26T06:48:39;10.70;95.00
11246;DHT22;59870;50.106;8.580;2024-02-26T06:51:09;11.10;95.10
11246;DHT22;59870;50.106;8.580;2024-02-26T06:53:38;10.80;95.00
11246;DHT22;59870;50.106;8.580;2024-02-26T06:56:07;10.80;94.90
11246;DHT22;59870;50.106;8.580;2024-02-26T06:58:36;10.80;95.00
11246;DHT22;59870;50.106;8.580;2024-02-26T07:01:04;10.80;95.30
11246;DHT22;59870;50.106;8.580;2024-02-26T07:03:35;10.80;95.10
11246;DHT22;59870;50.106;8.580;2024-02-26T07:06:04;10.80;95.20
11246;DHT22;59870;50.106;8.580;2024-02-26T07:08:35;10.80;95.00
11246;DHT22;59870;50.106;8.580;2024-02-26T07:11:07;10.80;95.10
11246;DHT22;59870;50.106;8.580;2024-02-26T07:13:36;10.70;95.10
11246;DHT22;59870;50.106;8.580;2024-02-26T07:16:05;10.70;95.30
11246;DHT22;59870;50.106;8.580;2024-02-26T07:18:34;10.70;95.40
11246;DHT22;59870;50.106;8.580;2024-02-26T07:21:04;10.60;95.30
11246;DHT22;59870;50.106;8.580;2024-02-26T07:23:33;10.50;95.30
11246;DHT22;59870;50.106;8.580;2024-02-26T07:26:03;10.50;95.50
11246;DHT22;59870;50.106;8.580;2024-02-26T07:28:33;10.50;95.70
11246;DHT22;59870;50.106;8.580;2024-02-26T07:31:01;10.00;95.30
11246;DHT22;59870;50.106;8.580;2024-02-26T07:33:30;10.50;95.60
11246;DHT22;59870;50.106;8.580;2024-02-26T07:35:59;10.40;95.70
11246;DHT22;59870;50.106;8.580;2024-02-26T07:38:28;10.40;95.70
11246;DHT22;59870;50.106;8.580;2024-02-26T07:41:11;10.40;95.70
11246;DHT22;59870;50.106;8.580;2024-02-26T07:43:41;10.40;96.10
11246;DHT22;59870;50.106;8.580;2024-02-26T07:46:11;10.40;96.10
11246;DHT22;59870;50.106;8.580;2024-02-26T07:48:41;10.30;96.20
11246;DHT22;59870;50.106;8.580;2024-02-26T07:51:12;10.30;96.30
11246;DHT22;59870;50.106;8.580;2024-02-26T07:53:42;10.30;96.50
11246;DHT22;59870;50.106;8.580;2024-02-26T07:56:12;10.30;96.10
11246;DHT22;59870;50.106;8.580;2024-02-26T07:58:41;10.30;96.30
11246;DHT22;59870;50.106;8.580;2024-02-26T08:01:13;10.20;96.30
11246;DHT22;59870;50.106;8.580;2024-02-26T08:03:41;10.20;96.40
11246;DHT22;59870;50.106;8.580;2024-02-26T08:06:10;10.20;96.50
11246;DHT22;59870;50.106;8.580;2024-02-26T08:08:38;10.20;96.60
11246;DHT22;59870;50.106;8.580;2024-02-26T08:11:07;10.20;96.60
11246;DHT22;59870;50.106;8.580;2024-02-26T08:13:37;10.20;96.70
11246;DHT22;59870;50.106;8.580;2024-02-26T08:16:06;10.20;96.60
11246;DHT22;59870;50.106;8.580;2024-02-26T08:18:34;10.30;96.50
11246;DHT22;59870;50.106;8.580;2024-02-26T08:21:04;10.30;96.50
11246;DHT22;59870;50.106;8.580;2024-02-26T08:23:33;10.30;96.70
11246;DHT22;59870;50.106;8.580;2024-02-26T08:26:01;10.40;96.70
11246;DHT22;59870;50.106;8.580;2024-02-26T08:28:31;10.70;97.10
11246;DHT22;59870;50.106;8.580;2024-02-26T08:31:01;10.70;96.90
11246;DHT22;59870;50.106;8.580;2024-02-26T08:33:30;10.40;96.80
11246;DHT22;59870;50.106;8.580;2024-02-26T08:36:02;10.30;97.00
11246;DHT22;59870;50.106;8.580;2024-02-26T08:38:32;10.30;97.20
11246;DHT22;59870;50.106;8.580;2024-02-26T08:41:02;10.20;97.30
11246;DHT22;59870;50.106;8.580;2024-02-26T08:43:30;10.30;97.40
11246;DHT22;59870;50.106;8.580;2024-02-26T08:45:59;10.30;97.20
11246;DHT22;59870;50.106;8.580;2024-02-26T08:48:29;10.30;97.30
11246;DHT22;59870;50.106;8.580;2024-02-26T08:50:58;10.30;97.50
11246;DHT22;59870;50.106;8.580;2024-02-26T08:53:27;10.30;97.30
11246;DHT22;59870;50.106;8.580;2024-02-26T08:56:09;10.30;97.40
11246;DHT22;59870;50.106;8.580;2024-02-26T08:58:39;10.30;97.50
11246;DHT22;59870;50.106;8.580;2024-02-26T09:01:07;10.30;97.50
11246;DHT22;59870;50.106;8.580;2024-02-26T09:03:36;10.30;97.70
11246;DHT22;59870;50.106;8.580;2024-02-26T09:06:05;10.30;97.50
11246;DHT22;59870;50.106;8.580;2024-02-26T09:08:34;10.40;97.40
11246;DHT22;59870;50.106;8.580;2024-02-26T09:11:04;10.40;97.40
11246;DHT22;59870;50.106;8.580;2024-02-26T09:13:32;10.40;97.60
11246;DHT22;59870;50.106;8.580;2024-02-26T09:16:01;10.40;97.50
11246;DHT22;59870;50.106;8.580;2024-02-26T09:18:30;10.40;97.50
11246;DHT22;59870;50.106;8.580;2024-02-26T09:21:04;10.40;97.40
11246;DHT22;59870;50.106;8.580;2024-02-26T09:23:32;10.40;97.70
11246;DHT22;59870;50.106;8.580;2024-02-26T09:26:02;10.40;97.70
11246;DHT22;59870;50.106;8.580;2024-02-26T09:28:33;10.40;97.90
11246;DHT22;59870;50.106;8.580;2024-02-26T09:31:05;10.40;98.00
11246;DHT22;59870;50.106;8.580;2024-02-26T09:33:34;10.40;98.20
11246;DHT22;59870;50.106;8.580;2024-02-26T09:36:05;10.40;98.30
11246;DHT22;59870;50.106;8.580;2024-02-26T09:38:34;10.40;98.30
11246;DHT22;59870;50.106;8.580;2024-02-26T09:41:22;10.40;98.40
11246;DHT22;59870;50.106;8.580;2024-02-26T09:43:53;10.40;98.70
11246;DHT22;59870;50.106;8.580;2024-02-26T09:46:24;10.40;98.90
11246;DHT22;59870;50.106;8.580;2024-02-26T09:48:53;10.50;98.60
11246;DHT22;59870;50.106;8.580;2024-02-26T09:51:24;10.70;98.80
11246;DHT22;59870;50.106;8.580;2024-02-26T09:53:54;10.50;99.10
11246;DHT22;59870;50.106;8.580;2024-02-26T09:56:25;10.50;99.40
11246;DHT22;59870;50.106;8.580;2024-02-26T09:58:54;10.60;99.20
11246;DHT22;59870;50.106;8.580;2024-02-26T10:01:24;10.60;99.50
11246;DHT22;59870;50.106;8.580;2024-02-26T10:03:55;10.70;99.00
11246;DHT22;59870;50.106;8.580;2024-02-26T10:06:26;10.70;99.00
11246;DHT22;59870;50.106;8.580;2024-02-26T10:08:56;10.70;99.10
11246;DHT22;59870;50.106;8.580;2024-02-26T10:11:27;10.80;99.50
11246;DHT22;59870;50.106;8.580;2024-02-26T10:13:56;10.80;99.50
11246;DHT22;59870;50.106;8.580;2024-02-26T10:16:25;11.00;99.30
11246;DHT22;59870;50.106;8.580;2024-02-26T10:18:53;11.10;99.30
11246;DHT22;59870;50.106;8.580;2024-02-26T10:21:28;11.70;99.40
11246;DHT22;59870;50.106;8.580;2024-02-26T10:23:56;11.20;99.10
11246;DHT22;59870;50.106;8.580;2024-02-26T10:26:25;11.30;99.00
11246;DHT22;59870;50.106;8.580;2024-02-26T10:28:59;11.30;98.70
11246;DHT22;59870;50.106;8.580;2024-02-26T10:31:28;11.30;99.00
11246;DHT22;59870;50.106;8.580;2024-02-26T10:33:57;11.30;99.20
11246;DHT22;59870;50.106;8.580;2024-02-26T10:36:33;11.30;99.00
11246;DHT22;59870;50.106;8.580;2024-02-26T10:39:18;11.30;98.80
11246;DHT22;59870;50.106;8.580;2024-02-26T10:41:46;11.60;99.10
11246;DHT22;59870;50.106;8.580;2024-02-26T10:44:16;11.30;99.00
11246;DHT22;59870;50.106;8.580;2024-02-26T10:46:47;11.40;98.90
11246;DHT22;59870;50.106;8.580;2024-02-26T10:49:17;11.40;98.60
11246;DHT22;59870;50.106;8.580;2024-02-26T10:51:55;11.40;98.70
11246;DHT22;59870;50.106;8.580;2024-02-26T10:54:26;11.50;98.70
11246;DHT22;59870;50.106;8.580;2024-02-26T10:56:56;11.50;98.40
11246;DHT22;59870;50.106;8.580;2024-02-26T10:59:26;11.70;98.40
11246;DHT22;59870;50.106;8.580;2024-02-26T11:01:56;12.30;98.90
11246;DHT22;59870;50.106;8.580;2024-02-26T11:04:26;11.80;98.20
11246;DHT22;59870;50.106;8.580;2024-02-26T11:06:59;11.90;98.30
11246;DHT22;59870;50.106;8.580;2024-02-26T11:09:29;12.20;98.30
11246;DHT22;59870;50.106;8.580;2024-02-26T11:11:58;11.90;98.50
11246;DHT22;59870;50.106;8.580;2024-02-26T11:14:29;11.90;98.10
11246;DHT22;59870;50.106;8.580;2024-02-26T11:17:00;11.90;98.20
11246;DHT22;59870;50.106;8.580;2024-02-26T11:19:30;12.00;98.40
11246;DHT22;59870;50.106;8.580;2024-02-26T11:22:04;12.30;98.50
11246;DHT22;59870;50.106;8.580;2024-02-26T11:24:47;12.10;98.20
11246;DHT22;59870;50.106;8.580;2024-02-26T11:27:17;12.40;98.20
11246;DHT22;59870;50.106;8.580;2024-02-26T11:29:49;12.20;98.20
11246;DHT22;59870;50.106;8.580;2024-02-26T11:32:20;12.30;98.40
11246;DHT22;59870;50.106;8.580;2024-02-26T11:34:49;12.40;98.10
11246;DHT22;59870;50.106;8.580;2024-02-26T11:37:20;12.40;97.70
11246;DHT22;59870;50.106;8.580;2024-02-26T11:39:51;12.90;97.60
11246;DHT22;59870;50.106;8.580;2024-02-26T11:42:23;12.60;96.90
11246;DHT22;59870;50.106;8.580;2024-02-26T11:44:53;12.70;96.70
11246;DHT22;59870;50.106;8.580;2024-02-26T11:47:23;12.70;96.60
11246;DHT22;59870;50.106;8.580;2024-02-26T11:49:52;13.00;97.00
11246;DHT22;59870;50.106;8.580;2024-02-26T11:52:28;12.70;97.10
11246;DHT22;59870;50.106;8.580;2024-02-26T12:24:39;13.20;96.40
11246;DHT22;59870;50.106;8.580;2024-02-26T12:30:27;13.00;95.20
11246;DHT22;59870;50.106;8.580;2024-02-26T12:33:01;13.50;95.60
11246;DHT22;59870;50.106;8.580;2024-02-26T12:35:30;13.60;95.60
11246;DHT22;59870;50.106;8.580;2024-02-26T12:38:00;13.40;95.40
11246;DHT22;59870;50.106;8.580;2024-02-26T12:40:32;13.40;95.50
11246;DHT22;59870;50.106;8.580;2024-02-26T12:43:01;13.60;95.70
11246;DHT22;59870;50.106;8.580;2024-02-26T12:45:30;13.30;95.60
11246;DHT22;59870;50.106;8.580;2024-02-26T12:47:59;13.50;95.50
11246;DHT22;59870;50.106;8.580;2024-02-26T12:50:29;13.30;95.60
11246;DHT22;59870;50.106;8.580;2024-02-26T12:53:01;13.30;95.40
11246;DHT22;59870;50.106;8.580;2024-02-26T12:55:32;13.70;95.60
11246;DHT22;59870;50.106;8.580;2024-02-26T12:58:04;13.70;95.80
11246;DHT22;59870;50.106;8.580;2024-02-26T13:00:32;13.70;95.70
11246;DHT22;59870;50.106;8.580;2024-02-26T13:03:31;13.50;95.30
11246;DHT22;59870;50.106;8.580;2024-02-26T13:06:00;13.40;95.40
11246;DHT22;59870;50.106;8.580;2024-02-26T13:08:31;13.40;95.50
11246;DHT22;59870;50.106;8.580;2024-02-26T13:11:02;13.70;95.50
11246;DHT22;59870;50.106;8.580;2024-02-26T13:13:32;13.50;95.40
11246;DHT22;59870;50.106;8.580;2024-02-26T13:16:04;14.00;95.60
11246;DHT22;59870;50.106;8.580;2024-02-26T13:18:35;13.60;95.20
11246;DHT22;59870;50.106;8.580;2024-02-26T13:21:09;13.80;95.40
11246;DHT22;59870;50.106;8.580;2024-02-26T13:23:38;13.60;95.40
11246;DHT22;59870;50.106;8.580;2024-02-26T13:26:12;13.60;95.20
11246;DHT22;59870;50.106;8.580;2024-02-26T13:28:42;13.60;95.30
11246;DHT22;59870;50.106;8.580;2024-02-26T13:31:14;13.70;95.10
11246;DHT22;59870;50.106;8.580;2024-02-26T13:33:46;14.00;95.20
11246;DHT22;59870;50.106;8.580;2024-02-26T13:36:17;13.60;95.20
11246;DHT22;59870;50.106;8.580;2024-02-26T13:38:51;13.70;95.00
11246;DHT22;59870;50.106;8.580;2024-02-26T13:41:24;13.80;95.20
11246;DHT22;59870;50.106;8.580;2024-02-26T13:43:56;14.10;95.40
11246;DHT22;59870;50.106;8.580;2024-02-26T13:46:26;14.10;95.50
11246;DHT22;59870;50.106;8.580;2024-02-26T13:48:54;13.80;95.40
11246;DHT22;59870;50.106;8.580;2024-02-26T13:51:24;14.10;95.40
11246;DHT22;59870;50.106;8.580;2024-02-26T13:53:53;14.10;95.10
11246;DHT22;59870;50.106;8.580;2024-02-26T13:56:24;13.90;95.00
11246;DHT22;59870;50.106;8.580;2024-02-26T13:58:53;14.00;94.80
11246;DHT22;59870;50.106;8.580;2024-02-26T14:01:22;14.30;94.60
11246;DHT22;59870;50.106;8.580;2024-02-26T14:03:55;14.00;94.60
11246;DHT22;59870;50.106;8.580;2024-02-26T14:06:25;14.00;94.20
11246;DHT22;59870;50.106;8.580;2024-02-26T14:08:54;14.50;94.30
11246;DHT22;59870;50.106;8.580;2024-02-26T14:11:24;13.90;94.10
11246;DHT22;59870;50.106;8.580;2024-02-26T14:13:54;14.00;94.10
11246;DHT22;59870;50.106;8.580;2024-02-26T14:16:25;14.10;94.00
11246;DHT22;59870;50.106;8.580;2024-02-26T14:18:57;14.10;93.80
11246;DHT22;59870;50.106;8.580;2024-02-26T14:21:26;14.30;94.00
11246;DHT22;59870;50.106;8.580;2024-02-26T14:23:56;14.10;93.80
11246;DHT22;59870;50.106;8.580;2024-02-26T14:26:26;14.20;93.70
11246;DHT22;59870;50.106;8.580;2024-02-26T14:28:56;14.10;93.70
11246;DHT22;59870;50.106;8.580;2024-02-26T14:31:49;14.60;94.00
11246;DHT22;59870;50.106;8.580;2024-02-26T14:34:19;14.10;93.90
11246;DHT22;59870;50.106;8.580;2024-02-26T14:36:48;14.10;94.10
11246;DHT22;59870;50.106;8.580;2024-02-26T14:39:18;14.10;93.90
11246;DHT22;59870;50.106;8.580;2024-02-26T14:41:50;14.10;94.00
11246;DHT22;59870;50.106;8.580;2024-02-26T14:44:22;14.00;94.00
11246;DHT22;59870;50.106;8.580;2024-02-26T14:46:52;14.40;94.00
11246;DHT22;59870;50.106;8.580;2024-02-26T14:49:21;14.30;93.70
11246;DHT22;59870;50.106;8.580;2024-02-26T14:51:50;14.10;93.90
11246;DHT22;59870;50.106;8.580;2024-02-26T14:54:20;14.10;93.90
11246;DHT22;59870;50.106;8.580;2024-02-26T14:56:55;14.50;93.60
11246;DHT22;59870;50.106;8.580;2024-02-26T14:59:24;14.40;93.80
11246;DHT22;59870;50.106;8.580;2024-02-26T15:01:53;14.40;93.60
11246;DHT22;59870;50.106;8.580;2024-02-26T15:04:22;14.00;93.40
11246;DHT22;59870;50.106;8.580;2024-02-26T15:06:51;14.00;93.60
11246;DHT22;59870;50.106;8.580;2024-02-26T15:09:20;14.30;93.80
11246;DHT22;59870;50.106;8.580;2024-02-26T15:11:49;14.40;94.10
11246;DHT22;59870;50.106;8.580;2024-02-26T15:14:19;14.40;94.00
11246;DHT22;59870;50.106;8.580;2024-02-26T15:16:51;13.90;93.70
11246;DHT22;59870;50.106;8.580;2024-02-26T15:19:20;13.90;93.80
11246;DHT22;59870;50.106;8.580;2024-02-26T15:21:49;13.90;93.80
11246;DHT22;59870;50.106;8.580;2024-02-26T15:24:18;13.90;93.70
11246;DHT22;59870;50.106;8.580;2024-02-26T15:26:47;13.90;93.90
11246;DHT22;59870;50.106;8.580;2024-02-26T15:29:15;14.20;94.10
11246;DHT22;59870;50.106;8.580;2024-02-26T15:31:45;13.80;93.90
11246;DHT22;59870;50.106;8.580;2024-02-26T15:34:14;13.90;93.90
11246;DHT22;59870;50.106;8.580;2024-02-26T15:36:45;13.80;93.80
11246;DHT22;59870;50.106;8.580;2024-02-26T15:39:14;13.80;93.80
11246;DHT22;59870;50.106;8.580;2024-02-26T15:41:43;14.10;93.90
11246;DHT22;59870;50.106;8.580;2024-02-26T15:44:14;13.90;93.80
11246;DHT22;59870;50.106;8.580;2024-02-26T15:46:42;14.20;93.90
11246;DHT22;59870;50.106;8.580;2024-02-26T15:49:12;14.00;93.70
11246;DHT22;59870;50.106;8.580;2024-02-26T15:51:44;14.00;93.40
11246;DHT22;59870;50.106;8.580;2024-02-26T15:54:13;13.90;93.30
11246;DHT22;59870;50.106;8.580;2024-02-26T15:56:42;14.00;93.60
11246;DHT22;59870;50.106;8.580;2024-02-26T15:59:11;14.20;93.70
11246;DHT22;59870;50.106;8.580;2024-02-26T16:01:39;13.90;93.50
11246;DHT22;59870;50.106;8.580;2024-02-26T16:04:08;13.90;93.60
11246;DHT22;59870;50.106;8.580;2024-02-26T16:06:41;14.20;93.90
11246;DHT22;59870;50.106;8.580;2024-02-26T16:09:12;13.60;93.50
11246;DHT22;59870;50.106;8.580;2024-02-26T16:11:41;14.00;93.70
11246;DHT22;59870;50.106;8.580;2024-02-26T16:14:16;14.50;93.70
11246;DHT22;59870;50.106;8.580;2024-02-26T16:16:52;13.90;93.50
11246;DHT22;59870;50.106;8.580;2024-02-26T16:19:22;14.10;93.70
11246;DHT22;59870;50.106;8.580;2024-02-26T16:21:53;13.90;93.60
11246;DHT22;59870;50.106;8.580;2024-02-26T16:24:24;14.00;93.50
11246;DHT22;59870;50.106;8.580;2024-02-26T16:47:56;14.00;93.70
11246;DHT22;59870;50.106;8.580;2024-02-26T16:50:25;13.90;94.20
11246;DHT22;59870;50.106;8.580;2024-02-26T16:52:54;13.80;94.30
11246;DHT22;59870;50.106;8.580;2024-02-26T16:55:23;13.80;94.50
11246;DHT22;59870;50.106;8.580;2024-02-26T16:57:54;13.70;94.50
11246;DHT22;59870;50.106;8.580;2024-02-26T17:00:25;13.70;94.60
11246;DHT22;59870;50.106;8.580;2024-02-26T17:02:54;14.00;94.70
11246;DHT22;59870;50.106;8.580;2024-02-26T17:05:25;13.70;94.50
11246;DHT22;59870;50.106;8.580;2024-02-26T17:07:54;13.70;94.60
11246;DHT22;59870;50.106;8.580;2024-02-26T17:10:23;13.70;94.50
11246;DHT22;59870;50.106;8.580;2024-02-26T17:12:52;13.70;94.60
11246;DHT22;59870;50.106;8.580;2024-02-26T17:15:21;13.90;94.70
11246;DHT22;59870;50.106;8.580;2024-02-26T17:17:50;14.10;94.70
11246;DHT22;59870;50.106;8.580;2024-02-26T17:20:19;13.70;94.60
11246;DHT22;59870;50.106;8.580;2024-02-26T17:22:49;13.70;94.60
11246;DHT22;59870;50.106;8.580;2024-02-26T17:25:18;13.80;94.60
11246;DHT22;59870;50.106;8.580;2024-02-26T17:27:47;13.70;94.60
11246;DHT22;59870;50.106;8.580;2024-02-26T17:30:16;13.80;94.60
11246;DHT22;59870;50.106;8.580;2024-02-26T17:32:44;14.00;94.80
11246;DHT22;59870;50.106;8.580;2024-02-26T17:35:16;14.00;94.80
11246;DHT22;59870;50.106;8.580;2024-02-26T17:37:45;13.70;94.70
11246;DHT22;59870;50.106;8.580;2024-02-26T17:40:16;13.70;94.60
11246;DHT22;59870;50.106;8.580;2024-02-26T17:42:45;13.40;94.50
11246;DHT22;59870;50.106;8.580;2024-02-26T17:45:14;13.70;94.70
11246;DHT22;59870;50.106;8.580;2024-02-26T17:47:45;13.70;94.60
11246;DHT22;59870;50.106;8.580;2024-02-26T17:50:14;13.60;94.50
11246;DHT22;59870;50.106;8.580;2024-02-26T17:52:44;13.70;94.50
11246;DHT22;59870;50.106;8.580;2024-02-26T17:55:13;14.20;94.50
11246;DHT22;59870;50.106;8.580;2024-02-26T17:57:44;13.70;94.20
11246;DHT22;59870;50.106;8.580;2024-02-26T18:00:13;13.70;94.20
11246;DHT22;59870;50.106;8.580;2024-02-26T18:02:43;13.80;94.10
11246;DHT22;59870;50.106;8.580;2024-02-26T18:05:12;13.90;94.00
11246;DHT22;59870;50.106;8.580;2024-02-26T18:07:41;13.80;94.00
11246;DHT22;59870;50.106;8.580;2024-02-26T18:10:11;13.80;94.10
11246;DHT22;59870;50.106;8.580;2024-02-26T18:12:44;13.70;94.10
11246;DHT22;59870;50.106;8.580;2024-02-26T18:15:14;14.10;94.30
11246;DHT22;59870;50.106;8.580;2024-02-26T18:17:43;14.00;94.20
11246;DHT22;59870;50.106;8.580;2024-02-26T18:20:15;13.70;93.90
11246;DHT22;59870;50.106;8.580;2024-02-26T18:22:44;13.60;93.80
11246;DHT22;59870;50.106;8.580;2024-02-26T18:25:14;13.90;94.00
11246;DHT22;59870;50.106;8.580;2024-02-26T18:27:42;13.60;94.00
11246;DHT22;59870;50.106;8.580;2024-02-26T18:30:13;13.80;94.10
11246;DHT22;59870;50.106;8.580;2024-02-26T18:32:42;13.50;94.00
11246;DHT22;59870;50.106;8.580;2024-02-26T18:35:11;13.90;94.20
11246;DHT22;59870;50.106;8.580;2024-02-26T18:37:39;13.40;93.80
11246;DHT22;59870;50.106;8.580;2024-02-26T18:40:09;13.40;93.90
11246;DHT22;59870;50.106;8.580;2024-02-26T18:42:38;13.40;93.80
11246;DHT22;59870;50.106;8.580;2024-02-26T18:45:08;13.90;94.10
11246;DHT22;59870;50.106;8.580;2024-02-26T18:47:39;13.40;93.80
11246;DHT22;59870;50.106;8.580;2024-02-26T18:50:09;13.40;93.70
11246;DHT22;59870;50.106;8.580;2024-02-26T18:52:37;13.40;93.60
11246;DHT22;59870;50.106;8.580;2024-02-26T18:55:08;13.40;93.50
11246;DHT22;59870;50.106;8.580;2024-02-26T18:57:37;13.40;93.40
11246;DHT22;59870;50.106;8.580;2024-02-26T19:00:32;13.30;93.20
11246;DHT22;59870;50.106;8.580;2024-02-26T19:03:02;13.30;93.20
11246;DHT22;59870;50.106;8.580;2024-02-26T19:05:33;13.30;93.10
11246;DHT22;59870;50.106;8.580;2024-02-26T19:08:02;13.30;92.80
11246;DHT22;59870;50.106;8.580;2024-02-26T19:10:32;13.20;92.60
11246;DHT22;59870;50.106;8.580;2024-02-26T19:13:00;13.30;92.60
11246;DHT22;59870;50.106;8.580;2024-02-26T19:15:32;13.10;92.40
11246;DHT22;59870;50.106;8.580;2024-02-26T19:18:02;13.10;92.20
11246;DHT22;59870;50.106;8.580;2024-02-26T19:20:33;13.10;92.20
11246;DHT22;59870;50.106;8.580;2024-02-26T19:23:04;13.00;92.20
11246;DHT22;59870;50.106;8.580;2024-02-26T19:25:33;13.00;92.20
11246;DHT22;59870;50.106;8.580;2024-02-26T19:28:06;13.00;92.10
11246;DHT22;59870;50.106;8.580;2024-02-26T19:30:36;13.00;91.90
11246;DHT22;59870;50.106;8.580;2024-02-26T19:33:07;13.00;92.10
11246;DHT22;59870;50.106;8.580;2024-02-26T19:35:38;13.10;92.00
11246;DHT22;59870;50.106;8.580;2024-02-26T19:38:07;13.10;92.10
11246;DHT22;59870;50.106;8.580;2024-02-26T19:40:36;13.10;91.90
11246;DHT22;59870;50.106;8.580;2024-02-26T19:43:05;13.40;91.90
11246;DHT22;59870;50.106;8.580;2024-02-26T19:45:34;13.10;91.70
11246;DHT22;59870;50.106;8.580;2024-02-26T19:48:03;13.10;91.60
11246;DHT22;59870;50.106;8.580;2024-02-26T19:50:34;13.20;91.70
11246;DHT22;59870;50.106;8.580;2024-02-26T19:53:03;13.50;91.70
11246;DHT22;59870;50.106;8.580;2024-02-26T19:55:32;13.20;91.60
11246;DHT22;59870;50.106;8.580;2024-02-26T19:58:01;13.10;91.40
11246;DHT22;59870;50.106;8.580;2024-02-26T20:00:31;13.20;91.50
11246;DHT22;59870;50.106;8.580;2024-02-26T20:03:00;13.10;91.80
11246;DHT22;59870;50.106;8.580;2024-02-26T20:05:30;13.10;91.60
11246;DHT22;59870;50.106;8.580;2024-02-26T20:08:00;13.60;91.90
11246;DHT22;59870;50.106;8.580;2024-02-26T20:10:29;13.10;91.50
11246;DHT22;59870;50.106;8.580;2024-02-26T20:12:58;13.10;91.40
11246;DHT22;59870;50.106;8.580;2024-02-26T20:15:27;13.10;91.60
11246;DHT22;59870;50.106;8.580;2024-02-26T20:17:56;13.00;91.70
11246;DHT22;59870;50.106;8.580;2024-02-26T20:20:25;13.60;92.00
11246;DHT22;59870;50.106;8.580;2024-02-26T20:22:56;13.10;91.80
11246;DHT22;59870;50.106;8.580;2024-02-26T20:25:26;13.00;91.80
11246;DHT22;59870;50.106;8.580;2024-02-26T20:27:55;13.40;91.90
11246;DHT22;59870;50.106;8.580;2024-02-26T20:30:24;13.30;91.80
11246;DHT22;59870;50.106;8.580;2024-02-26T20:32:54;13.10;91.70
11246;DHT22;59870;50.106;8.580;2024-02-26T20:35:23;13.10;91.60
11246;DHT22;59870;50.106;8.580;2024-02-26T20:37:52;13.10;91.60
11246;DHT22;59870;50.106;8.580;2024-02-26T20:40:21;13.10;91.80
11246;DHT22;59870;50.106;8.580;2024-02-26T20:42:51;13.00;91.90
11246;DHT22;59870;50.106;8.580;2024-02-26T20:45:21;12.90;92.10
11246;DHT22;59870;50.106;8.580;2024-02-26T20:47:55;13.30;92.60
11246;DHT22;59870;50.106;8.580;2024-02-26T20:50:24;12.60;92.50
11246;DHT22;59870;50.106;8.580;2024-02-26T20:52:53;12.50;92.60
11246;DHT22;59870;50.106;8.580;2024-02-26T20:55:23;12.40;92.90
11246;DHT22;59870;50.106;8.580;2024-02-26T20:57:53;12.40;93.00
11246;DHT22;59870;50.106;8.580;2024-02-26T21:00:23;12.40;93.00
11246;DHT22;59870;50.106;8.580;2024-02-26T21:02:52;12.30;93.20
11246;DHT22;59870;50.106;8.580;2024-02-26T21:05:21;12.70;93.50
11246;DHT22;59870;50.106;8.580;2024-02-26T21:07:50;12.20;93.40
11246;DHT22;59870;50.106;8.580;2024-02-26T21:10:19;12.20;93.30
11246;DHT22;59870;50.106;8.580;2024-02-26T21:12:52;12.20;93.30
11246;DHT22;59870;50.106;8.580;2024-02-26T21:15:22;12.20;93.20
11246;DHT22;59870;50.106;8.580;2024-02-26T21:17:50;12.30;93.30
11246;DHT22;59870;50.106;8.580;2024-02-26T21:20:19;12.20;93.20
11246;DHT22;59870;50.106;8.580;2024-02-26T21:22:51;12.30;93.10
11246;DHT22;59870;50.106;8.580;2024-02-26T21:25:19;12.30;93.10
11246;DHT22;59870;50.106;8.580;2024-02-26T21:27:48;12.60;93.20
11246;DHT22;59870;50.106;8.580;2024-02-26T21:30:18;12.30;93.10
11246;DHT22;59870;50.106;8.580;2024-02-26T21:32:51;12.30;93.00
11246;DHT22;59870;50.106;8.580;2024-02-26T21:35:23;12.30;92.80
11246;DHT22;59870;50.106;8.580;2024-02-26T21:37:52;12.30;92.80
11246;DHT22;59870;50.106;8.580;2024-02-26T21:40:21;12.30;92.80
11246;DHT22;59870;50.106;8.580;2024-02-26T21:42:50;12.30;92.90
11246;DHT22;59870;50.106;8.580;2024-02-26T21:45:21;12.30;92.80
11246;DHT22;59870;50.106;8.580;2024-02-26T21:47:50;12.30;92.60
11246;DHT22;59870;50.106;8.580;2024-02-26T21:50:19;12.30;92.70
11246;DHT22;59870;50.106;8.580;2024-02-26T21:52:48;12.40;92.70
11246;DHT22;59870;50.106;8.580;2024-02-26T21:55:17;12.40;92.50
11246;DHT22;59870;50.106;8.580;2024-02-26T21:57:47;12.40;92.60
11246;DHT22;59870;50.106;8.580;2024-02-26T22:00:17;12.40;92.60
11246;DHT22;59870;50.106;8.580;2024-02-26T22:02:47;12.40;92.80
11246;DHT22;59870;50.106;8.580;2024-02-26T22:05:16;12.40;92.60
11246;DHT22;59870;50.106;8.580;2024-02-26T22:07:44;12.40;92.70
11246;DHT22;59870;50.106;8.580;2024-02-26T22:10:13;12.40;92.60
11246;DHT22;59870;50.106;8.580;2024-02-26T22:12:43;12.30;92.70
11246;DHT22;59870;50.106;8.580;2024-02-26T22:15:12;12.30;92.80
11246;DHT22;59870;50.106;8.580;2024-02-26T22:17:40;12.30;93.00
11246;DHT22;59870;50.106;8.580;2024-02-26T22:20:11;12.30;93.00
11246;DHT22;59870;50.106;8.580;2024-02-26T22:22:40;12.20;93.00
11246;DHT22;59870;50.106;8.580;2024-02-26T22:25:09;12.20;93.10
11246;DHT22;59870;50.106;8.580;2024-02-26T22:27:38;12.40;93.50
11246;DHT22;59870;50.106;8.580;2024-02-26T22:30:08;12.30;93.20
11246;DHT22;59870;50.106;8.580;2024-02-26T22:32:38;12.10;93.30
11246;DHT22;59870;50.106;8.580;2024-02-26T22:35:07;12.40;93.40
11246;DHT22;59870;50.106;8.580;2024-02-26T22:37:38;12.10;93.30
11246;DHT22;59870;50.106;8.580;2024-02-26T22:40:07;12.10;93.40
11246;DHT22;59870;50.106;8.580;2024-02-26T22:42:36;12.10;93.50
11246;DHT22;59870;50.106;8.580;2024-02-26T22:45:06;12.60;93.80
11246;DHT22;59870;50.106;8.580;2024-02-26T22:47:35;12.10;93.50
11246;DHT22;59870;50.106;8.580;2024-02-26T22:50:06;12.10;93.50
11246;DHT22;59870;50.106;8.580;2024-02-26T22:52:35;12.20;93.60
11246;DHT22;59870;50.106;8.580;2024-02-26T22:55:07;12.20;93.50
11246;DHT22;59870;50.106;8.580;2024-02-26T22:57:36;12.20;93.70
11246;DHT22;59870;50.106;8.580;2024-02-26T23:00:06;12.20;93.70
11246;DHT22;59870;50.106;8.580;2024-02-26T23:02:52;12.20;93.80
11246;DHT22;59870;50.106;8.580;2024-02-26T23:05:22;12.10;93.70
11246;DHT22;59870;50.106;8.580;2024-02-26T23:07:53;12.20;93.80
11246;DHT22;59870;50.106;8.580;2024-02-26T23:10:24;12.20;93.80
11246;DHT22;59870;50.106;8.580;2024-02-26T23:12:59;12.20;93.80
11246;DHT22;59870;50.106;8.580;2024-02-26T23:15:46;12.20;94.00
11246;DHT22;59870;50.106;8.580;2024-02-26T23:18:29;12.20;94.00